sensor_id;sensor_type;location;lat;lon;timestamp;temperature;humidity
19292;DHT22;9779;51.756;7.450;2023-04-03T00:01:20;4.90;99.90
19292;DHT22;9779;51.756;7.450;2023-04-03T00:03:46;4.90;99.90
19292;DHT22;9779;51.756;7.450;2023-04-03T00:06:12;4.90;99.90
19292;DHT22;9779;51.756;7.450;2023-04-03T00:08:39;4.80;99.90
19292;DHT22;9779;51.756;7.450;2023-04-03T00:11:05;4.70;99.90
19292;DHT22;9779;51.756;7.450;2023-04-03T00:13:33;4.80;99.90
19292;DHT22;9779;51.756;7.450;2023-04-03T00:15:59;4.80;99.90
19292;DHT22;9779;51.756;7.450;2023-04-03T00:18:24;4.70;99.90
19292;DHT22;9779;51.756;7.450;2023-04-03T00:20:50;4.80;99.90
19292;DHT22;9779;51.756;7.450;2023-04-03T00:23:16;4.80;99.90
19292;DHT22;9779;51.756;7.450;2023-04-03T00:25:42;4.70;99.90
19292;DHT22;9779;51.756;7.450;2023-04-03T00:28:08;4.60;99.90
19292;DHT22;9779;51.756;7.450;2023-04-03T00:30:34;4.60;99.90
19292;DHT22;9779;51.756;7.450;2023-04-03T00:33:00;4.60;99.90
19292;DHT22;9779;51.756;7.450;2023-04-03T00:35:26;4.50;99.90
19292;DHT22;9779;51.756;7.450;2023-04-03T00:37:53;4.50;99.90
19292;DHT22;9779;51.756;7.450;2023-04-03T00:40:20;4.50;99.90
19292;DHT22;9779;51.756;7.450;2023-04-03T00:42:47;4.40;99.90
19292;DHT22;9779;51.756;7.450;2023-04-03T00:45:27;4.40;99.90
19292;DHT22;9779;51.756;7.450;2023-04-03T00:47:54;4.30;99.90
19292;DHT22;9779;51.756;7.450;2023-04-03T00:50:20;4.20;99.90
19292;DHT22;9779;51.756;7.450;2023-04-03T00:52:46;4.20;99.90
19292;DHT22;9779;51.756;7.450;2023-04-03T00:55:14;4.30;99.90
19292;DHT22;9779;51.756;7.450;2023-04-03T00:57:40;4.30;99.90
19292;DHT22;9779;51.756;7.450;2023-04-03T01:00:10;4.30;99.90
19292;DHT22;9779;51.756;7.450;2023-04-03T01:02:36;4.30;99.90
19292;DHT22;9779;51.756;7.450;2023-04-03T01:05:03;4.20;99.90
19292;DHT22;9779;51.756;7.450;2023-04-03T01:07:32;4.10;99.90
19292;DHT22;9779;51.756;7.450;2023-04-03T01:10:02;4.20;99.90
19292;DHT22;9779;51.756;7.450;2023-04-03T01:12:39;4.10;99.90
19292;DHT22;9779;51.756;7.450;2023-04-03T01:15:12;4.00;99.90
19292;DHT22;9779;51.756;7.450;2023-04-03T01:17:40;4.10;99.90
19292;DHT22;9779;51.756;7.450;2023-04-03T01:25:46;4.00;99.90
19292;DHT22;9779;51.756;7.450;2023-04-03T01:28:24;4.00;99.90
19292;DHT22;9779;51.756;7.450;2023-04-03T01:30:56;4.00;99.90
19292;DHT22;9779;51.756;7.450;2023-04-03T01:33:23;4.00;99.90
19292;DHT22;9779;51.756;7.450;2023-04-03T01:35:49;4.00;99.90
19292;DHT22;9779;51.756;7.450;2023-04-03T01:38:14;4.00;99.90
19292;DHT22;9779;51.756;7.450;2023-04-03T01:40:41;4.00;99.90
19292;DHT22;9779;51.756;7.450;2023-04-03T01:43:07;3.90;99.90
19292;DHT22;9779;51.756;7.450;2023-04-03T01:45:32;3.90;99.90
19292;DHT22;9779;51.756;7.450;2023-04-03T01:47:58;3.90;99.90
19292;DHT22;9779;51.756;7.450;2023-04-03T01:50:24;3.90;99.90
19292;DHT22;9779;51.756;7.450;2023-04-03T01:52:49;3.90;99.90
19292;DHT22;9779;51.756;7.450;2023-04-03T01:55:15;3.90;99.90
19292;DHT22;9779;51.756;7.450;2023-04-03T01:57:41;3.80;99.90
19292;DHT22;9779;51.756;7.450;2023-04-03T02:00:07;3.80;99.90
19292;DHT22;9779;51.756;7.450;2023-04-03T02:02:33;3.80;99.90
19292;DHT22;9779;51.756;7.450;2023-04-03T02:04:58;3.80;99.90
19292;DHT22;9779;51.756;7.450;2023-04-03T02:07:24;3.70;99.90
19292;DHT22;9779;51.756;7.450;2023-04-03T02:09:49;3.70;99.90
19292;DHT22;9779;51.756;7.450;2023-04-03T02:12:15;3.60;99.90
19292;DHT22;9779;51.756;7.450;2023-04-03T02:14:41;3.50;99.90
19292;DHT22;9779;51.756;7.450;2023-04-03T02:17:06;3.50;99.90
19292;DHT22;9779;51.756;7.450;2023-04-03T02:19:34;3.50;99.90
19292;DHT22;9779;51.756;7.450;2023-04-03T02:22:01;3.60;99.90
19292;DHT22;9779;51.756;7.450;2023-04-03T02:24:27;3.50;99.90
19292;DHT22;9779;51.756;7.450;2023-04-03T02:26:53;3.50;99.90
19292;DHT22;9779;51.756;7.450;2023-04-03T02:29:18;3.50;99.90
19292;DHT22;9779;51.756;7.450;2023-04-03T02:31:44;3.50;99.90
19292;DHT22;9779;51.756;7.450;2023-04-03T02:34:10;3.50;99.90
19292;DHT22;9779;51.756;7.450;2023-04-03T02:36:35;3.50;99.90
19292;DHT22;9779;51.756;7.450;2023-04-03T02:39:01;3.40;99.90
19292;DHT22;9779;51.756;7.450;2023-04-03T02:41:26;3.40;99.90
19292;DHT22;9779;51.756;7.450;2023-04-03T02:43:58;3.30;99.90
19292;DHT22;9779;51.756;7.450;2023-04-03T02:46:24;3.30;99.90
19292;DHT22;9779;51.756;7.450;2023-04-03T02:48:50;3.20;99.90
19292;DHT22;9779;51.756;7.450;2023-04-03T02:51:16;3.30;99.90
19292;DHT22;9779;51.756;7.450;2023-04-03T02:53:41;3.20;99.90
19292;DHT22;9779;51.756;7.450;2023-04-03T02:56:07;3.20;99.90
19292;DHT22;9779;51.756;7.450;2023-04-03T02:58:32;3.20;99.90
19292;DHT22;9779;51.756;7.450;2023-04-03T03:00:58;3.20;99.90
19292;DHT22;9779;51.756;7.450;2023-04-03T03:03:23;3.10;99.90
19292;DHT22;9779;51.756;7.450;2023-04-03T03:05:49;3.10;99.90
19292;DHT22;9779;51.756;7.450;2023-04-03T03:08:14;3.10;99.90
19292;DHT22;9779;51.756;7.450;2023-04-03T03:10:40;3.10;99.90
19292;DHT22;9779;51.756;7.450;2023-04-03T03:13:05;3.10;99.90
19292;DHT22;9779;51.756;7.450;2023-04-03T03:15:31;3.10;99.90
19292;DHT22;9779;51.756;7.450;2023-04-03T03:17:57;3.00;99.90
19292;DHT22;9779;51.756;7.450;2023-04-03T03:20:22;3.00;99.90
19292;DHT22;9779;51.756;7.450;2023-04-03T03:22:48;3.00;99.90
19292;DHT22;9779;51.756;7.450;2023-04-03T03:25:13;3.00;99.90
19292;DHT22;9779;51.756;7.450;2023-04-03T03:27:39;3.00;99.90
19292;DHT22;9779;51.756;7.450;2023-04-03T03:30:05;2.90;99.90
19292;DHT22;9779;51.756;7.450;2023-04-03T03:32:31;2.90;99.90
19292;DHT22;9779;51.756;7.450;2023-04-03T03:34:57;2.90;99.90
19292;DHT22;9779;51.756;7.450;2023-04-03T03:37:22;2.80;99.90
19292;DHT22;9779;51.756;7.450;2023-04-03T03:39:50;2.80;99.90
19292;DHT22;9779;51.756;7.450;2023-04-03T03:42:15;2.80;99.90
19292;DHT22;9779;51.756;7.450;2023-04-03T03:44:41;2.80;99.90
19292;DHT22;9779;51.756;7.450;2023-04-03T03:47:07;2.80;99.90
19292;DHT22;9779;51.756;7.450;2023-04-03T03:49:34;2.70;99.90
19292;DHT22;9779;51.756;7.450;2023-04-03T03:52:00;2.70;99.90
19292;DHT22;9779;51.756;7.450;2023-04-03T03:54:26;2.60;99.90
19292;DHT22;9779;51.756;7.450;2023-04-03T03:56:51;2.60;99.90
19292;DHT22;9779;51.756;7.450;2023-04-03T03:59:17;2.60;99.90
19292;DHT22;9779;51.756;7.450;2023-04-03T04:01:42;2.60;99.90
19292;DHT22;9779;51.756;7.450;2023-04-03T04:04:08;2.50;99.90
19292;DHT22;9779;51.756;7.450;2023-04-03T04:06:34;2.50;99.90
19292;DHT22;9779;51.756;7.450;2023-04-03T04:09:00;2.50;99.90
19292;DHT22;9779;51.756;7.450;2023-04-03T04:11:25;2.50;99.90
19292;DHT22;9779;51.756;7.450;2023-04-03T04:13:52;2.40;99.90
19292;DHT22;9779;51.756;7.450;2023-04-03T04:16:18;2.50;99.90
19292;DHT22;9779;51.756;7.450;2023-04-03T04:18:43;2.50;99.90
19292;DHT22;9779;51.756;7.450;2023-04-03T04:21:09;2.40;99.90
19292;DHT22;9779;51.756;7.450;2023-04-03T04:23:35;2.30;99.90
19292;DHT22;9779;51.756;7.450;2023-04-03T04:26:00;2.30;99.90
19292;DHT22;9779;51.756;7.450;2023-04-03T04:28:26;2.40;99.90
19292;DHT22;9779;51.756;7.450;2023-04-03T04:30:51;2.30;99.90
19292;DHT22;9779;51.756;7.450;2023-04-03T04:33:17;2.30;99.90
19292;DHT22;9779;51.756;7.450;2023-04-03T04:35:43;2.30;99.90
19292;DHT22;9779;51.756;7.450;2023-04-03T04:38:09;2.30;99.90
19292;DHT22;9779;51.756;7.450;2023-04-03T04:40:34;2.20;99.90
19292;DHT22;9779;51.756;7.450;2023-04-03T04:43:00;2.20;99.90
19292;DHT22;9779;51.756;7.450;2023-04-03T04:45:26;2.20;99.90
19292;DHT22;9779;51.756;7.450;2023-04-03T04:47:51;2.20;99.90
19292;DHT22;9779;51.756;7.450;2023-04-03T04:50:20;2.10;99.90
19292;DHT22;9779;51.756;7.450;2023-04-03T04:52:45;2.10;99.90
19292;DHT22;9779;51.756;7.450;2023-04-03T04:55:11;2.10;99.90
19292;DHT22;9779;51.756;7.450;2023-04-03T04:57:36;2.00;99.90
19292;DHT22;9779;51.756;7.450;2023-04-03T05:00:04;2.00;99.90
19292;DHT22;9779;51.756;7.450;2023-04-03T05:02:30;2.00;99.90
19292;DHT22;9779;51.756;7.450;2023-04-03T05:04:56;2.00;99.90
19292;DHT22;9779;51.756;7.450;2023-04-03T05:07:22;2.00;99.90
19292;DHT22;9779;51.756;7.450;2023-04-03T05:09:47;1.90;99.90
19292;DHT22;9779;51.756;7.450;2023-04-03T05:12:13;1.90;99.90
19292;DHT22;9779;51.756;7.450;2023-04-03T05:14:39;1.90;99.90
19292;DHT22;9779;51.756;7.450;2023-04-03T05:17:04;1.80;99.90
19292;DHT22;9779;51.756;7.450;2023-04-03T05:19:30;1.90;99.90
19292;DHT22;9779;51.756;7.450;2023-04-03T05:21:55;1.80;99.90
19292;DHT22;9779;51.756;7.450;2023-04-03T05:24:21;1.80;99.90
19292;DHT22;9779;51.756;7.450;2023-04-03T05:26:46;1.80;99.90
19292;DHT22;9779;51.756;7.450;2023-04-03T05:29:12;1.80;99.90
19292;DHT22;9779;51.756;7.450;2023-04-03T05:31:38;1.80;99.90
19292;DHT22;9779;51.756;7.450;2023-04-03T05:34:03;1.80;99.90
19292;DHT22;9779;51.756;7.450;2023-04-03T05:36:29;1.70;99.90
19292;DHT22;9779;51.756;7.450;2023-04-03T05:38:54;1.60;99.90
19292;DHT22;9779;51.756;7.450;2023-04-03T05:41:22;1.60;99.90
19292;DHT22;9779;51.756;7.450;2023-04-03T05:43:48;1.60;99.90
19292;DHT22;9779;51.756;7.450;2023-04-03T05:46:16;1.60;99.90
19292;DHT22;9779;51.756;7.450;2023-04-03T05:48:42;1.50;99.90
19292;DHT22;9779;51.756;7.450;2023-04-03T05:51:14;1.60;99.90
19292;DHT22;9779;51.756;7.450;2023-04-03T05:53:41;1.60;99.90
19292;DHT22;9779;51.756;7.450;2023-04-03T05:56:07;1.60;99.90
19292;DHT22;9779;51.756;7.450;2023-04-03T05:58:33;1.60;99.90
19292;DHT22;9779;51.756;7.450;2023-04-03T06:00:59;1.60;99.90
19292;DHT22;9779;51.756;7.450;2023-04-03T06:03:25;1.60;99.90
19292;DHT22;9779;51.756;7.450;2023-04-03T06:05:52;1.60;99.90
19292;DHT22;9779;51.756;7.450;2023-04-03T06:08:17;1.60;99.90
19292;DHT22;9779;51.756;7.450;2023-04-03T06:10:43;1.70;99.90
19292;DHT22;9779;51.756;7.450;2023-04-03T06:13:08;1.70;99.90
19292;DHT22;9779;51.756;7.450;2023-04-03T06:15:34;1.70;99.90
19292;DHT22;9779;51.756;7.450;2023-04-03T06:18:00;1.70;99.90
19292;DHT22;9779;51.756;7.450;2023-04-03T06:20:25;1.70;99.90
19292;DHT22;9779;51.756;7.450;2023-04-03T06:22:51;1.70;99.90
19292;DHT22;9779;51.756;7.450;2023-04-03T06:25:17;1.70;99.90
19292;DHT22;9779;51.756;7.450;2023-04-03T06:27:44;1.70;99.90
19292;DHT22;9779;51.756;7.450;2023-04-03T06:30:10;1.70;99.90
19292;DHT22;9779;51.756;7.450;2023-04-03T06:32:36;1.80;99.90
19292;DHT22;9779;51.756;7.450;2023-04-03T06:35:01;1.80;99.90
19292;DHT22;9779;51.756;7.450;2023-04-03T06:37:27;1.70;99.90
19292;DHT22;9779;51.756;7.450;2023-04-03T06:39:54;1.70;99.90
19292;DHT22;9779;51.756;7.450;2023-04-03T06:42:20;1.70;99.90
19292;DHT22;9779;51.756;7.450;2023-04-03T06:44:46;1.70;99.90
19292;DHT22;9779;51.756;7.450;2023-04-03T06:47:13;1.80;99.90
19292;DHT22;9779;51.756;7.450;2023-04-03T06:49:39;1.80;99.90
19292;DHT22;9779;51.756;7.450;2023-04-03T06:52:04;1.80;99.90
19292;DHT22;9779;51.756;7.450;2023-04-03T06:54:31;1.80;99.90
19292;DHT22;9779;51.756;7.450;2023-04-03T06:56:56;1.80;99.90
19292;DHT22;9779;51.756;7.450;2023-04-03T06:59:22;1.80;99.90
19292;DHT22;9779;51.756;7.450;2023-04-03T07:01:48;1.90;99.90
19292;DHT22;9779;51.756;7.450;2023-04-03T07:04:14;1.90;99.90
19292;DHT22;9779;51.756;7.450;2023-04-03T07:06:40;1.90;99.90
19292;DHT22;9779;51.756;7.450;2023-04-03T07:09:09;2.00;99.90
19292;DHT22;9779;51.756;7.450;2023-04-03T07:11:36;2.00;99.90
19292;DHT22;9779;51.756;7.450;2023-04-03T07:14:02;2.00;99.90
19292;DHT22;9779;51.756;7.450;2023-04-03T07:16:28;2.00;99.90
19292;DHT22;9779;51.756;7.450;2023-04-03T07:18:56;2.00;99.90
19292;DHT22;9779;51.756;7.450;2023-04-03T07:21:21;2.10;99.90
19292;DHT22;9779;51.756;7.450;2023-04-03T07:23:47;2.10;99.90
19292;DHT22;9779;51.756;7.450;2023-04-03T07:26:12;2.20;99.90
19292;DHT22;9779;51.756;7.450;2023-04-03T07:28:38;2.20;99.90
19292;DHT22;9779;51.756;7.450;2023-04-03T07:31:07;2.20;99.90
19292;DHT22;9779;51.756;7.450;2023-04-03T07:33:36;2.30;99.90
19292;DHT22;9779;51.756;7.450;2023-04-03T07:36:03;2.30;99.90
19292;DHT22;9779;51.756;7.450;2023-04-03T07:38:29;2.40;99.90
19292;DHT22;9779;51.756;7.450;2023-04-03T07:40:54;2.40;99.90
19292;DHT22;9779;51.756;7.450;2023-04-03T07:43:21;2.50;99.90
19292;DHT22;9779;51.756;7.450;2023-04-03T07:45:48;2.50;99.90
19292;DHT22;9779;51.756;7.450;2023-04-03T07:48:18;2.50;99.90
19292;DHT22;9779;51.756;7.450;2023-04-03T07:50:44;2.60;99.90
19292;DHT22;9779;51.756;7.450;2023-04-03T07:53:10;2.70;99.90
19292;DHT22;9779;51.756;7.450;2023-04-03T07:55:36;2.80;99.90
19292;DHT22;9779;51.756;7.450;2023-04-03T07:58:09;2.90;99.90
19292;DHT22;9779;51.756;7.450;2023-04-03T08:00:35;2.90;99.90
19292;DHT22;9779;51.756;7.450;2023-04-03T08:03:00;3.00;99.90
19292;DHT22;9779;51.756;7.450;2023-04-03T08:05:26;3.00;99.90
19292;DHT22;9779;51.756;7.450;2023-04-03T08:07:52;3.00;99.90
19292;DHT22;9779;51.756;7.450;2023-04-03T08:10:18;3.10;99.90
19292;DHT22;9779;51.756;7.450;2023-04-03T08:12:46;3.20;99.90
19292;DHT22;9779;51.756;7.450;2023-04-03T08:15:12;3.30;99.90
19292;DHT22;9779;51.756;7.450;2023-04-03T08:17:38;3.30;99.90
19292;DHT22;9779;51.756;7.450;2023-04-03T08:20:05;3.40;99.90
19292;DHT22;9779;51.756;7.450;2023-04-03T08:22:32;3.50;99.90
19292;DHT22;9779;51.756;7.450;2023-04-03T08:24:58;3.50;99.90
19292;DHT22;9779;51.756;7.450;2023-04-03T08:27:23;3.70;99.90
19292;DHT22;9779;51.756;7.450;2023-04-03T08:29:49;3.70;99.90
19292;DHT22;9779;51.756;7.450;2023-04-03T08:32:14;3.80;99.90
19292;DHT22;9779;51.756;7.450;2023-04-03T08:34:40;3.80;99.90
19292;DHT22;9779;51.756;7.450;2023-04-03T08:37:06;4.00;99.90
19292;DHT22;9779;51.756;7.450;2023-04-03T08:39:31;4.00;99.90
19292;DHT22;9779;51.756;7.450;2023-04-03T08:41:59;4.10;99.90
19292;DHT22;9779;51.756;7.450;2023-04-03T08:44:47;4.20;99.90
19292;DHT22;9779;51.756;7.450;2023-04-03T08:47:36;4.20;99.90
19292;DHT22;9779;51.756;7.450;2023-04-03T08:50:06;4.30;20.00
19292;DHT22;9779;51.756;7.450;2023-04-03T08:55:07;4.50;1.00
19292;DHT22;9779;51.756;7.450;2023-04-03T08:57:40;4.50;1.00
19292;DHT22;9779;51.756;7.450;2023-04-03T09:00:16;4.60;1.00
19292;DHT22;9779;51.756;7.450;2023-04-03T09:02:45;4.70;1.00
19292;DHT22;9779;51.756;7.450;2023-04-03T09:05:20;4.80;99.90
19292;DHT22;9779;51.756;7.450;2023-04-03T09:10:41;5.00;1.00
19292;DHT22;9779;51.756;7.450;2023-04-03T09:15:53;5.10;99.90
19292;DHT22;9779;51.756;7.450;2023-04-03T09:18:23;5.20;99.90
19292;DHT22;9779;51.756;7.450;2023-04-03T09:23:54;5.30;1.00
19292;DHT22;9779;51.756;7.450;2023-04-03T09:26:44;5.50;1.00
19292;DHT22;9779;51.756;7.450;2023-04-03T09:29:16;5.70;99.90
19292;DHT22;9779;51.756;7.450;2023-04-03T09:31:44;5.70;99.90
19292;DHT22;9779;51.756;7.450;2023-04-03T09:34:30;5.80;51.70
19292;DHT22;9779;51.756;7.450;2023-04-03T09:36:58;5.90;1.00
19292;DHT22;9779;51.756;7.450;2023-04-03T09:39:27;5.90;1.00
19292;DHT22;9779;51.756;7.450;2023-04-03T09:42:03;6.00;99.90
19292;DHT22;9779;51.756;7.450;2023-04-03T09:44:35;6.10;99.90
19292;DHT22;9779;51.756;7.450;2023-04-03T09:47:19;6.30;99.90
19292;DHT22;9779;51.756;7.450;2023-04-03T09:49:44;6.30;12.70
19292;DHT22;9779;51.756;7.450;2023-04-03T09:52:23;6.30;1.00
19292;DHT22;9779;51.756;7.450;2023-04-03T09:54:49;6.40;1.00
19292;DHT22;9779;51.756;7.450;2023-04-03T09:57:15;6.50;99.90
19292;DHT22;9779;51.756;7.450;2023-04-03T09:59:47;6.60;1.00
19292;DHT22;9779;51.756;7.450;2023-04-03T10:02:31;6.80;1.00
19292;DHT22;9779;51.756;7.450;2023-04-03T10:04:57;6.90;1.00
19292;DHT22;9779;51.756;7.450;2023-04-03T10:07:40;6.90;1.00
19292;DHT22;9779;51.756;7.450;2023-04-03T10:12:42;7.10;1.00
19292;DHT22;9779;51.756;7.450;2023-04-03T10:15:16;7.10;1.00
19292;DHT22;9779;51.756;7.450;2023-04-03T10:18:17;7.10;1.00
19292;DHT22;9779;51.756;7.450;2023-04-03T10:23:27;7.30;1.00
19292;DHT22;9779;51.756;7.450;2023-04-03T10:28:57;7.50;99.90
19292;DHT22;9779;51.756;7.450;2023-04-03T10:34:25;7.70;99.90
19292;DHT22;9779;51.756;7.450;2023-04-03T10:40:01;7.90;99.90
19292;DHT22;9779;51.756;7.450;2023-04-03T10:42:48;8.00;99.90
19292;DHT22;9779;51.756;7.450;2023-04-03T10:56:07;8.40;99.90
19292;DHT22;9779;51.756;7.450;2023-04-03T10:58:40;8.50;99.90
19292;DHT22;9779;51.756;7.450;2023-04-03T11:01:13;8.60;99.90
19292;DHT22;9779;51.756;7.450;2023-04-03T11:03:43;8.70;99.90
19292;DHT22;9779;51.756;7.450;2023-04-03T11:06:11;8.90;99.90
19292;DHT22;9779;51.756;7.450;2023-04-03T11:09:10;9.00;99.90
19292;DHT22;9779;51.756;7.450;2023-04-03T11:11:39;9.20;99.90
19292;DHT22;9779;51.756;7.450;2023-04-03T11:14:11;9.10;82.80
19292;DHT22;9779;51.756;7.450;2023-04-03T11:16:46;9.20;99.90
19292;DHT22;9779;51.756;7.450;2023-04-03T11:19:32;9.20;90.70
19292;DHT22;9779;51.756;7.450;2023-04-03T11:24:39;9.40;60.00
19292;DHT22;9779;51.756;7.450;2023-04-03T11:27:15;9.60;45.30
19292;DHT22;9779;51.756;7.450;2023-04-03T11:29:44;9.70;99.90
19292;DHT22;9779;51.756;7.450;2023-04-03T11:32:37;9.80;84.50
19292;DHT22;9779;51.756;7.450;2023-04-03T11:35:08;9.90;81.20
19292;DHT22;9779;51.756;7.450;2023-04-03T11:37:40;10.00;24.10
19292;DHT22;9779;51.756;7.450;2023-04-03T11:43:18;10.10;7.50
19292;DHT22;9779;51.756;7.450;2023-04-03T11:46:04;10.20;1.00
19292;DHT22;9779;51.756;7.450;2023-04-03T11:53:39;10.20;1.00
19292;DHT22;9779;51.756;7.450;2023-04-03T12:04:17;10.30;1.00
19292;DHT22;9779;51.756;7.450;2023-04-03T12:06:54;10.40;1.00
19292;DHT22;9779;51.756;7.450;2023-04-03T12:09:52;10.70;1.00
19292;DHT22;9779;51.756;7.450;2023-04-03T12:12:34;10.70;1.00
19292;DHT22;9779;51.756;7.450;2023-04-03T12:15:25;10.80;1.00
19292;DHT22;9779;51.756;7.450;2023-04-03T12:17:52;10.80;1.00
19292;DHT22;9779;51.756;7.450;2023-04-03T12:20:46;11.10;1.00
19292;DHT22;9779;51.756;7.450;2023-04-03T12:23:35;11.30;1.00
19292;DHT22;9779;51.756;7.450;2023-04-03T12:26:20;11.60;1.00
19292;DHT22;9779;51.756;7.450;2023-04-03T12:28:51;11.40;1.00
19292;DHT22;9779;51.756;7.450;2023-04-03T12:31:19;11.40;1.00
19292;DHT22;9779;51.756;7.450;2023-04-03T12:34:00;11.70;1.00
19292;DHT22;9779;51.756;7.450;2023-04-03T12:36:41;11.70;1.00
19292;DHT22;9779;51.756;7.450;2023-04-03T12:39:16;12.10;99.90
19292;DHT22;9779;51.756;7.450;2023-04-03T12:45:19;11.70;1.00
19292;DHT22;9779;51.756;7.450;2023-04-03T12:47:45;11.90;1.00
19292;DHT22;9779;51.756;7.450;2023-04-03T12:50:23;12.10;1.00
19292;DHT22;9779;51.756;7.450;2023-04-03T12:53:07;12.30;1.00
19292;DHT22;9779;51.756;7.450;2023-04-03T12:55:37;12.30;1.00
19292;DHT22;9779;51.756;7.450;2023-04-03T12:58:26;12.50;99.90
19292;DHT22;9779;51.756;7.450;2023-04-03T13:03:29;12.50;99.90
19292;DHT22;9779;51.756;7.450;2023-04-03T13:06:02;12.60;99.90
19292;DHT22;9779;51.756;7.450;2023-04-03T13:08:29;12.80;99.90
19292;DHT22;9779;51.756;7.450;2023-04-03T13:11:22;12.60;99.90
19292;DHT22;9779;51.756;7.450;2023-04-03T13:14:04;12.50;99.90
19292;DHT22;9779;51.756;7.450;2023-04-03T13:16:31;12.60;99.90
19292;DHT22;9779;51.756;7.450;2023-04-03T13:18:58;12.40;99.90
19292;DHT22;9779;51.756;7.450;2023-04-03T13:21:29;12.50;99.90
19292;DHT22;9779;51.756;7.450;2023-04-03T13:23:58;12.60;99.90
19292;DHT22;9779;51.756;7.450;2023-04-03T13:26:27;12.60;99.90
19292;DHT22;9779;51.756;7.450;2023-04-03T13:28:56;12.80;99.90
19292;DHT22;9779;51.756;7.450;2023-04-03T13:31:27;13.00;99.90
19292;DHT22;9779;51.756;7.450;2023-04-03T13:33:56;12.90;99.90
19292;DHT22;9779;51.756;7.450;2023-04-03T13:36:30;13.00;99.90
19292;DHT22;9779;51.756;7.450;2023-04-03T13:41:36;13.20;99.90
19292;DHT22;9779;51.756;7.450;2023-04-03T13:46:43;12.30;99.90
19292;DHT22;9779;51.756;7.450;2023-04-03T13:49:29;12.40;1.00
19292;DHT22;9779;51.756;7.450;2023-04-03T13:51:56;12.40;99.90
19292;DHT22;9779;51.756;7.450;2023-04-03T13:54:32;12.80;99.90
19292;DHT22;9779;51.756;7.450;2023-04-03T13:57:00;13.10;99.90
19292;DHT22;9779;51.756;7.450;2023-04-03T13:59:34;13.30;99.90
19292;DHT22;9779;51.756;7.450;2023-04-03T14:06:59;13.40;99.90
19292;DHT22;9779;51.756;7.450;2023-04-03T14:09:26;13.70;99.90
19292;DHT22;9779;51.756;7.450;2023-04-03T14:11:55;13.60;99.90
19292;DHT22;9779;51.756;7.450;2023-04-03T14:14:26;13.70;99.90
19292;DHT22;9779;51.756;7.450;2023-04-03T14:16:57;13.70;99.90
19292;DHT22;9779;51.756;7.450;2023-04-03T14:19:31;13.80;99.90
19292;DHT22;9779;51.756;7.450;2023-04-03T14:21:58;13.90;99.90
19292;DHT22;9779;51.756;7.450;2023-04-03T14:24:24;14.00;99.90
19292;DHT22;9779;51.756;7.450;2023-04-03T14:26:52;13.90;99.90
19292;DHT22;9779;51.756;7.450;2023-04-03T14:29:18;13.90;99.90
19292;DHT22;9779;51.756;7.450;2023-04-03T14:34:12;14.30;1.00
19292;DHT22;9779;51.756;7.450;2023-04-03T14:36:39;14.30;99.90
19292;DHT22;9779;51.756;7.450;2023-04-03T14:39:07;14.60;99.90
19292;DHT22;9779;51.756;7.450;2023-04-03T14:41:34;14.50;99.90
19292;DHT22;9779;51.756;7.450;2023-04-03T14:44:00;14.40;99.90
19292;DHT22;9779;51.756;7.450;2023-04-03T14:46:32;14.60;99.90
19292;DHT22;9779;51.756;7.450;2023-04-03T14:48:59;14.30;99.90
19292;DHT22;9779;51.756;7.450;2023-04-03T14:51:25;14.10;99.90
19292;DHT22;9779;51.756;7.450;2023-04-03T14:53:51;14.30;99.90
19292;DHT22;9779;51.756;7.450;2023-04-03T14:56:23;14.20;99.90
19292;DHT22;9779;51.756;7.450;2023-04-03T14:58:50;13.70;99.90
19292;DHT22;9779;51.756;7.450;2023-04-03T15:01:18;13.50;99.90
19292;DHT22;9779;51.756;7.450;2023-04-03T15:03:44;13.80;99.90
19292;DHT22;9779;51.756;7.450;2023-04-03T15:06:12;14.20;99.90
19292;DHT22;9779;51.756;7.450;2023-04-03T15:08:37;14.40;99.90
19292;DHT22;9779;51.756;7.450;2023-04-03T15:11:06;14.10;99.90
19292;DHT22;9779;51.756;7.450;2023-04-03T15:13:32;13.80;99.90
19292;DHT22;9779;51.756;7.450;2023-04-03T15:15:58;13.70;99.90
19292;DHT22;9779;51.756;7.450;2023-04-03T15:18:26;13.80;99.90
19292;DHT22;9779;51.756;7.450;2023-04-03T15:20:54;14.40;99.90
19292;DHT22;9779;51.756;7.450;2023-04-03T15:23:20;14.10;99.90
19292;DHT22;9779;51.756;7.450;2023-04-03T15:25:51;14.00;99.90
19292;DHT22;9779;51.756;7.450;2023-04-03T15:28:41;14.50;99.90
19292;DHT22;9779;51.756;7.450;2023-04-03T15:31:07;15.00;99.90
19292;DHT22;9779;51.756;7.450;2023-04-03T15:33:34;15.20;99.90
19292;DHT22;9779;51.756;7.450;2023-04-03T15:36:00;15.40;99.90
19292;DHT22;9779;51.756;7.450;2023-04-03T15:40:52;15.40;1.00
19292;DHT22;9779;51.756;7.450;2023-04-03T15:43:18;15.20;1.00
19292;DHT22;9779;51.756;7.450;2023-04-03T15:45:44;15.20;1.00
19292;DHT22;9779;51.756;7.450;2023-04-03T15:48:10;15.10;99.90
19292;DHT22;9779;51.756;7.450;2023-04-03T15:50:37;15.50;99.90
19292;DHT22;9779;51.756;7.450;2023-04-03T15:53:03;15.70;99.90
19292;DHT22;9779;51.756;7.450;2023-04-03T15:55:32;15.90;99.90
19292;DHT22;9779;51.756;7.450;2023-04-03T15:57:58;16.00;99.90
19292;DHT22;9779;51.756;7.450;2023-04-03T16:00:24;15.90;99.90
19292;DHT22;9779;51.756;7.450;2023-04-03T16:02:53;15.50;99.90
19292;DHT22;9779;51.756;7.450;2023-04-03T16:05:21;15.60;99.90
19292;DHT22;9779;51.756;7.450;2023-04-03T16:07:47;15.70;99.90
19292;DHT22;9779;51.756;7.450;2023-04-03T16:10:14;15.80;99.90
19292;DHT22;9779;51.756;7.450;2023-04-03T16:12:40;15.70;99.90
19292;DHT22;9779;51.756;7.450;2023-04-03T16:15:06;15.40;99.90
19292;DHT22;9779;51.756;7.450;2023-04-03T16:17:33;15.00;99.90
19292;DHT22;9779;51.756;7.450;2023-04-03T16:19:59;14.80;99.90
19292;DHT22;9779;51.756;7.450;2023-04-03T16:22:27;15.00;99.90
19292;DHT22;9779;51.756;7.450;2023-04-03T16:24:53;14.80;99.90
19292;DHT22;9779;51.756;7.450;2023-04-03T16:27:19;14.80;99.90
19292;DHT22;9779;51.756;7.450;2023-04-03T16:29:45;14.70;99.90
19292;DHT22;9779;51.756;7.450;2023-04-03T16:32:11;14.40;99.90
19292;DHT22;9779;51.756;7.450;2023-04-03T16:34:37;14.40;99.90
19292;DHT22;9779;51.756;7.450;2023-04-03T16:37:03;14.30;99.90
19292;DHT22;9779;51.756;7.450;2023-04-03T16:39:28;14.10;99.90
19292;DHT22;9779;51.756;7.450;2023-04-03T16:41:54;13.80;99.90
19292;DHT22;9779;51.756;7.450;2023-04-03T16:44:19;13.50;99.90
19292;DHT22;9779;51.756;7.450;2023-04-03T16:46:45;13.20;99.90
19292;DHT22;9779;51.756;7.450;2023-04-03T16:49:10;12.80;99.90
19292;DHT22;9779;51.756;7.450;2023-04-03T16:51:36;12.50;99.90
19292;DHT22;9779;51.756;7.450;2023-04-03T16:54:01;12.10;99.90
19292;DHT22;9779;51.756;7.450;2023-04-03T16:56:27;12.00;99.90
19292;DHT22;9779;51.756;7.450;2023-04-03T16:58:53;11.90;99.90
19292;DHT22;9779;51.756;7.450;2023-04-03T17:01:20;11.90;99.90
19292;DHT22;9779;51.756;7.450;2023-04-03T17:03:46;11.40;99.90
19292;DHT22;9779;51.756;7.450;2023-04-03T17:06:12;11.50;99.90
19292;DHT22;9779;51.756;7.450;2023-04-03T17:08:46;11.60;99.90
19292;DHT22;9779;51.756;7.450;2023-04-03T17:11:13;11.40;99.90
19292;DHT22;9779;51.756;7.450;2023-04-03T17:13:38;11.50;99.90
19292;DHT22;9779;51.756;7.450;2023-04-03T17:16:06;11.60;99.90
19292;DHT22;9779;51.756;7.450;2023-04-03T17:18:33;11.50;99.90
19292;DHT22;9779;51.756;7.450;2023-04-03T17:20:58;11.10;99.90
19292;DHT22;9779;51.756;7.450;2023-04-03T17:23:25;11.00;99.90
19292;DHT22;9779;51.756;7.450;2023-04-03T17:25:53;10.80;99.90
19292;DHT22;9779;51.756;7.450;2023-04-03T17:28:20;10.80;99.90